Airfield :
LOGIN :

Register | Disclaimer

   EN    FR    IT 

 










Legend :    VFR   Marginal VFR   IFR   Intensive IFR   Very Intensive IFR
Visi :
Ceiling :
>= 8 km
>= 3000ft
5 to 8 km
1000 to 3000 ft
1500m to 5 km
500 to 1000 ft
800 to 1500m
200 to 500 ft
< 800m
< 200 ft
Symbols :   Thunderstorms  Fog  Heavy snow  Heavy precipitations  Wind > 20 kt
SIGMETs :     Misc.  Thunderstorms  Icing  Turbulence  Mountain Waves  Volcanic Ashes







- Airport Elevation : 13 ft
- IATA code : CAG


LIEE - Cagliari Elmas

CURRENT METAR :
  • 231550Z 33008KT CAVOK 21/11 Q1018

EXPIRED METARs :
  • 231520Z 32007KT CAVOK 22/11 Q1018
  • 231450Z 31008KT CAVOK 22/12 Q1018
  • 231420Z 32008KT 290V360 CAVOK 22/12 Q1018
  • 231350Z 29005KT 260V320 CAVOK 22/11 Q1018
  • 231320Z 29006KT 260V320 CAVOK 22/10 Q1018

TAF TAF LIEE
Valid from the 23 at 12:00 until the 24 at 12:00 UTC


231100Z 2312/2412 34012KT CAVOK
BECMG 2318/2320 VRB05KT
BECMG 2408/2410 32010KT
No reported NOTAMs for that airfield.
3 SIGMETs reported for the Roma FIR (LIRR) :
 
Severe turbulence
LIRR SIGMET 9 VALID 231600/231910 LIIB
LIRR ROMA FIR SEV TURB FCST WI N3756 E01030 - N3733 E01128 - N3628 E01130 - N3625 E01231 - N3628 E01337 - N3733 E01602 - N3852 E01730 - N3853 E01649 - N3910 E01610 - N4001 E01546 - N4039 E01432 - N3756 E01030 FL270/400 STNR WKN=
SIGMET 6  cancelation
LIRR SIGMET 8 VALID 231606/231915 LIIB- LIRR ROMA FIR EXERCISE VOLCITA 2018 EXERCISE CNL SIGMET 6 231315/231915 EXERCISE EXERCISE EXERCISE=
SIGMET 6  CANCELED :
Volcanic ashes
LIRR SIGMET 6 VALID 231315/231915 LIIB- LIRR ROMA FIR EXERCISE VOLCITA 2018 EXERCISE VA ERUPTION MT CAMPI FLEGREI PSN N4050 E01408 VA CLD OBS AT 1300Z WI N3630 E01130 - N3730 E01130 - N3758 E01024 - N4140 E01119 - N4143 E01408 - N4127 E01422 - N4112 E01507 - N4054 E01517 - N3630 E01437 - N3630 E01130 SFC/FL100 FCST AT 1900Z WI N3630 E01130 - N3730 E01130 - N3816 E00942 - N4119 E01034 - N4147 E01404 - N4127 E01422 - N4112 E01507 - N4026 E01533 - N3630 E01340 - N3630 E01130 AND WI N3630 E01130 - N3730 E01130 - N3758 E01024 - N4140 E01119 - N4143 E01408 - N4127 E01422 - N4112 E01507 - N4054 E01517 - N3630 E01437 - N3630 E01130 FL100/460 FCST AT 1900Z WI N3630 E01130 - N3730 E01130 - N3839 E00847 - N3925 E00819 - N4156 E01356 - N4127 E01422 - N4112 E01507 - N3913 E01615 - N3858 E01631 - N3858 E01637 - N3630 E01737 - N3630 E01130 EXERCISE EXERCISE EXERCISE=



MET'MAP, your aeronautical weather chart ! - Copyright ORBIFLY December 2007 - Disclaimer

ORBIFLY MET'MAP TEAM :

Programming & Development : Alexandra Zaïnal
Concept & Development : Baudouin d'Aumeries
Co-Development & Prog : Marc-Olivier Méhu
Technical & hardware support : Manuel Goepfert

Contact : metmap@orbifly.com




SOURCES & CREDITS :

   NOAA